Time;durP1;ratioP1;P1;durP2;ratioP2;P2;SDS_P1;SDS_P2;PMS_P1;PMS_P2;Temp;Humidity;BMP_temperature;BMP_pressure;BME280_temperature;BME280_humidity;BME280_pressure;Samples;Min_cycle;Max_cycle;Signal;HPM_P1;HPM_P2
2022/09/15 00:00:07;;;;;;;5.80;3.10;;;;;;;13.49;100.00;99919.09;1649189;85;20957;-38
2022/09/15 00:02:34;;;;;;;3.35;2.90;;;;;;;13.53;100.00;99925.86;1678469;85;21014;-38
2022/09/15 00:05:01;;;;;;;3.55;3.30;;;;;;;13.56;100.00;99923.13;1678169;85;20942;-38
2022/09/15 00:07:27;;;;;;;3.72;3.30;;;;;;;13.60;100.00;99922.57;1678162;85;20962;-38
2022/09/15 00:09:54;;;;;;;6.50;3.30;;;;;;;13.64;100.00;99918.94;1678080;85;21178;-38
2022/09/15 00:12:21;;;;;;;4.05;3.62;;;;;;;13.66;100.00;99924.92;1678007;85;20918;-39
2022/09/15 00:14:48;;;;;;;4.70;3.20;;;;;;;13.68;100.00;99928.30;1678251;85;21024;-38
2022/09/15 00:17:14;;;;;;;6.60;3.30;;;;;;;13.70;100.00;99932.98;1678087;85;21008;-39
2022/09/15 00:19:41;;;;;;;3.17;2.87;;;;;;;13.72;100.00;99941.57;1678372;84;21044;-39
2022/09/15 00:22:08;;;;;;;2.90;2.70;;;;;;;13.74;100.00;99942.35;1690871;84;21132;-38
2022/09/15 00:24:35;;;;;;;2.90;2.62;;;;;;;13.77;100.00;99946.16;1690955;84;21459;-38
2022/09/15 00:27:03;;;;;;;3.27;3.02;;;;;;;13.81;100.00;99949.94;1690834;84;20949;-38
2022/09/15 00:29:30;;;;;;;6.12;3.08;;;;;;;13.84;100.00;99947.21;1690689;84;21563;-39
2022/09/15 00:31:57;;;;;;;5.50;2.87;;;;;;;13.88;100.00;99953.98;1690976;84;20972;-39
2022/09/15 00:34:26;;;;;;;5.53;3.05;;;;;;;13.90;100.00;99962.56;1690917;84;21306;-39
2022/09/15 00:36:52;;;;;;;3.55;3.10;;;;;;;13.87;100.00;99961.39;1690919;84;20969;-39
2022/09/15 00:39:19;;;;;;;4.58;2.80;;;;;;;13.87;100.00;99941.88;1690855;84;20980;-38
2022/09/15 00:41:48;;;;;;;2.75;2.62;;;;;;;13.82;100.00;99930.34;1690915;84;21474;-39
2022/09/15 00:44:38;;;;;;;5.42;2.85;;;;;;;13.79;100.00;99914.43;1691078;84;20953;-39
2022/09/15 00:47:05;;;;;;;5.47;3.40;;;;;;;13.75;100.00;99915.44;1686718;84;21187;-39
2022/09/15 00:49:33;;;;;;;4.70;2.90;;;;;;;13.72;100.00;99909.06;1690578;84;20902;-39
2022/09/15 00:52:08;;;;;;;4.87;3.10;;;;;;;13.68;100.00;99913.17;1690964;84;20988;-38
2022/09/15 00:54:47;;;;;;;3.00;2.67;;;;;;;13.61;100.00;99920.36;1690765;84;20917;-38
2022/09/15 00:57:23;;;;;;;4.60;3.62;;;;;;;13.55;100.00;99911.51;1690853;84;20854;-38
2022/09/15 00:59:50;;;;;;;4.12;3.25;;;;;;;13.46;100.00;99912.24;1690955;84;21155;-38
2022/09/15 01:02:21;;;;;;;4.80;3.20;;;;;;;13.44;100.00;99916.66;1690851;84;20937;-38
2022/09/15 01:04:50;;;;;;;3.40;2.85;;;;;;;13.41;100.00;99912.84;1690922;84;20945;-39
2022/09/15 01:07:26;;;;;;;6.40;3.17;;;;;;;13.36;100.00;99903.92;1665329;84;20984;-39
2022/09/15 01:09:57;;;;;;;3.80;3.12;;;;;;;13.30;100.00;99893.77;1691274;84;20925;-38
2022/09/15 01:12:24;;;;;;;4.08;3.55;;;;;;;13.25;100.00;99898.73;1690934;84;21152;-38
2022/09/15 01:14:51;;;;;;;4.50;3.20;;;;;;;13.18;100.00;99895.09;1690822;84;20953;-38
2022/09/15 01:17:35;;;;;;;8.05;3.47;;;;;;;13.12;100.00;99897.06;1690946;84;21001;-39
2022/09/15 01:20:25;;;;;;;6.22;3.30;;;;;;;13.06;100.00;99897.70;1610161;84;20911;-39
2022/09/15 01:23:22;;;;;;;4.78;3.02;;;;;;;13.02;100.00;99899.19;1678371;85;21096;-39
2022/09/15 01:26:14;;;;;;;6.35;3.17;;;;;;;12.96;100.00;99889.00;1679036;85;21174;-39
2022/09/15 01:29:20;;;;;;;3.60;3.30;;;;;;;12.88;100.00;99882.79;1679008;85;20949;-39
2022/09/15 01:35:32;;;;;;;4.15;3.75;;;;;;;12.68;100.00;99880.93;1679073;85;20966;-39
2022/09/15 01:38:32;;;;;;;5.50;3.30;;;;;;;12.57;100.00;99876.98;1679130;85;21037;-39
2022/09/15 01:41:33;;;;;;;4.80;3.02;;;;;;;12.48;100.00;99876.00;1679122;85;21086;-39
2022/09/15 01:44:09;;;;;;;4.08;3.42;;;;;;;12.38;100.00;99879.83;1678955;85;20898;-39
2022/09/15 01:46:45;;;;;;;4.47;3.15;;;;;;;12.29;100.00;99870.61;1679025;84;20961;-39
2022/09/15 01:49:10;;;;;;;6.05;3.80;;;;;;;12.23;100.00;99874.27;1651806;85;20985;-39
2022/09/15 01:51:36;;;;;;;3.55;3.35;;;;;;;12.18;100.00;99873.58;1651587;85;21036;-39
2022/09/15 01:54:04;;;;;;;3.87;3.20;;;;;;;12.11;100.00;99869.05;1629808;85;21339;-38
2022/09/15 01:56:31;;;;;;;3.80;3.50;;;;;;;12.06;100.00;99878.30;1678947;84;21037;-38
2022/09/15 01:58:58;;;;;;;3.25;3.05;;;;;;;11.99;100.00;99881.95;1679091;85;20934;-38
2022/09/15 02:01:42;;;;;;;6.92;3.72;;;;;;;11.95;100.00;99876.94;1679067;85;20965;-38
2022/09/15 02:04:12;;;;;;;3.45;3.15;;;;;;;11.93;100.00;99871.78;1678246;85;20910;-39
2022/09/15 02:06:52;;;;;;;4.33;3.90;;;;;;;11.87;100.00;99870.70;1679042;85;21185;-39
2022/09/15 02:09:32;;;;;;;11.28;3.60;;;;;;;11.83;100.00;99867.81;1678965;85;21013;-39
2022/09/15 02:12:09;;;;;;;8.20;3.42;;;;;;;11.76;100.00;99861.98;1679009;85;20933;-38
2022/09/15 02:14:54;;;;;;;5.08;3.70;;;;;;;11.70;100.00;99868.20;1678858;85;21056;-39
2022/09/15 02:17:21;;;;;;;3.37;3.17;;;;;;;11.65;100.00;99873.98;1678973;84;20930;-39
2022/09/15 02:19:56;;;;;;;4.10;3.83;;;;;;;11.59;100.00;99865.13;1651543;85;21110;-38
2022/09/15 02:22:28;;;;;;;4.53;3.80;;;;;;;11.55;100.00;99870.00;1677370;85;21020;-39
2022/09/15 02:26:32;;;;;;;10.38;3.95;;;;;;;11.53;100.00;99861.44;1816246;78;23374;-38
2022/09/15 02:29:00;;;;;;;11.78;3.90;;;;;;;11.44;100.00;99872.47;1789545;80;20942;-38
2022/09/15 02:31:26;;;;;;;8.80;4.03;;;;;;;11.39;100.00;99864.00;1788838;80;22307;-38
2022/09/15 02:34:01;;;;;;;4.47;3.70;;;;;;;11.33;100.00;99862.44;1789128;80;21073;-38
2022/09/15 02:36:27;;;;;;;6.87;4.22;;;;;;;11.27;100.00;99868.28;1789018;80;21373;-38
2022/09/15 02:39:01;;;;;;;3.87;3.45;;;;;;;11.21;100.00;99864.95;1789242;80;20968;-38
2022/09/15 02:41:28;;;;;;;3.55;3.25;;;;;;;11.16;100.00;99860.37;1789279;80;20975;-38
2022/09/15 02:43:54;;;;;;;12.68;3.35;;;;;;;11.09;100.00;99860.16;1789288;80;21426;-38
2022/09/15 02:46:22;;;;;;;3.52;3.22;;;;;;;11.03;100.00;99860.36;1789047;80;20939;-38
2022/09/15 02:48:49;;;;;;;3.92;3.62;;;;;;;10.94;100.00;99856.29;1773865;80;21553;-38
2022/09/15 02:51:16;;;;;;;4.05;3.75;;;;;;;10.88;100.00;99850.00;1789182;80;21041;-38
2022/09/15 02:53:45;;;;;;;4.40;3.60;;;;;;;10.82;100.00;99858.79;1789483;80;21224;-38
2022/09/15 02:56:11;;;;;;;3.90;3.70;;;;;;;10.77;100.00;99853.73;1789134;80;21233;-38
2022/09/15 02:58:38;;;;;;;4.35;4.05;;;;;;;10.74;100.00;99843.94;1789112;80;20904;-38
2022/09/15 03:01:06;;;;;;;3.87;3.58;;;;;;;10.73;100.00;99846.09;1789049;80;20947;-38
2022/09/15 03:03:33;;;;;;;8.40;4.03;;;;;;;10.70;100.00;99846.19;1789389;80;20940;-39
2022/09/15 03:06:15;;;;;;;4.05;3.75;;;;;;;10.66;100.00;99843.28;1789276;80;21373;-38
2022/09/15 03:08:51;;;;;;;7.83;4.40;;;;;;;10.64;100.00;99840.30;1760515;80;20928;-38
2022/09/15 03:11:19;;;;;;;7.07;4.00;;;;;;;10.67;100.00;99835.49;1760844;81;21487;-38
2022/09/15 03:13:46;;;;;;;3.92;3.65;;;;;;;10.67;100.00;99838.08;1731120;81;20896;-38
2022/09/15 03:16:15;;;;;;;4.95;4.15;;;;;;;10.63;100.00;99838.60;1760558;79;21863;-38
2022/09/15 03:18:41;;;;;;;3.80;3.52;;;;;;;10.58;100.00;99835.30;1760292;80;20978;-38
2022/09/15 03:21:11;;;;;;;4.95;4.20;;;;;;;10.54;100.00;99836.28;1760451;81;21096;-38
2022/09/15 03:23:39;;;;;;;4.65;4.33;;;;;;;10.50;100.00;99837.27;1760316;81;21014;-38
2022/09/15 03:26:07;;;;;;;4.05;3.67;;;;;;;10.45;100.00;99833.94;1751057;81;21536;-38
2022/09/15 03:28:35;;;;;;;3.77;3.20;;;;;;;10.40;100.00;99831.50;1747501;82;21087;-37
2022/09/15 03:31:02;;;;;;;4.97;4.10;;;;;;;10.33;100.00;99833.36;1747264;82;21030;-38
2022/09/15 03:33:29;;;;;;;6.65;4.30;;;;;;;10.26;100.00;99835.72;1747146;82;22276;-38
2022/09/15 03:35:56;;;;;;;9.58;3.95;;;;;;;10.21;100.00;99833.25;1747074;82;20972;-38
2022/09/15 03:38:23;;;;;;;4.72;4.05;;;;;;;10.18;100.00;99832.05;1746717;82;21414;-38
2022/09/15 03:41:02;;;;;;;4.05;3.75;;;;;;;10.16;100.00;99839.00;1725805;82;20882;-38
2022/09/15 03:43:30;;;;;;;5.00;3.87;;;;;;;10.15;100.00;99828.68;1747139;82;20913;-38
2022/09/15 03:45:57;;;;;;;3.90;3.65;;;;;;;10.16;100.00;99826.49;1746783;82;21513;-38
2022/09/15 03:48:25;;;;;;;3.85;3.65;;;;;;;10.16;100.00;99825.20;1725893;82;20936;-38
2022/09/15 03:50:52;;;;;;;7.17;4.17;;;;;;;10.15;100.00;99832.55;1725740;82;21407;-38
2022/09/15 03:53:19;;;;;;;9.60;3.40;;;;;;;10.14;100.00;99836.03;1746643;82;21450;-38
2022/09/15 03:55:47;;;;;;;4.65;4.15;;;;;;;10.16;100.00;99839.42;1746893;82;20937;-38
2022/09/15 03:58:13;;;;;;;5.05;4.53;;;;;;;10.18;100.00;99831.18;1746731;80;21155;-39
2022/09/15 04:00:40;;;;;;;8.50;4.10;;;;;;;10.20;100.00;99829.39;1736818;82;21439;-38
2022/09/15 04:03:07;;;;;;;8.88;4.28;;;;;;;10.25;100.00;99834.45;1746712;81;21004;-38
2022/09/15 04:05:35;;;;;;;6.45;4.67;;;;;;;10.29;100.00;99830.47;1746626;82;20969;-39
2022/09/15 04:08:02;;;;;;;5.42;4.22;;;;;;;10.37;100.00;99826.37;1746670;82;20976;-38
2022/09/15 04:10:29;;;;;;;3.83;3.47;;;;;;;10.46;100.00;99825.28;1746817;82;21112;-38
2022/09/15 04:12:56;;;;;;;4.75;3.27;;;;;;;10.62;100.00;99833.48;1746506;82;20983;-38
2022/09/15 04:15:23;;;;;;;4.00;3.65;;;;;;;10.78;100.00;99831.30;1746756;82;20975;-39
2022/09/15 04:17:50;;;;;;;3.27;3.10;;;;;;;10.93;100.00;99833.41;1746722;82;20932;-38
2022/09/15 04:20:21;;;;;;;6.20;3.20;;;;;;;11.07;100.00;99826.98;1746827;82;21027;-38
2022/09/15 04:22:51;;;;;;;3.95;3.60;;;;;;;11.18;100.00;99813.24;1746712;82;21399;-39
2022/09/15 04:25:18;;;;;;;4.40;3.87;;;;;;;11.30;100.00;99816.36;1747163;80;21047;-39
2022/09/15 04:27:45;;;;;;;9.13;4.20;;;;;;;11.43;100.00;99811.17;1749308;82;20979;-39
2022/09/15 04:30:12;;;;;;;4.72;3.72;;;;;;;11.62;100.00;99811.88;1749664;82;21534;-39
2022/09/15 04:32:39;;;;;;;7.58;3.70;;;;;;;11.86;100.00;99815.84;1749358;82;21585;-39
2022/09/15 04:35:08;;;;;;;3.77;3.55;;;;;;;12.12;100.00;99812.83;1749599;82;21493;-39
2022/09/15 04:37:34;;;;;;;4.00;3.70;;;;;;;12.37;100.00;99812.79;1749512;82;21174;-39
2022/09/15 04:40:02;;;;;;;4.25;3.42;;;;;;;12.59;100.00;99821.95;1749475;82;20888;-39
2022/09/15 04:42:30;;;;;;;3.17;2.92;;;;;;;12.76;100.00;99812.70;1749325;82;21533;-39
2022/09/15 04:44:57;;;;;;;3.58;3.27;;;;;;;12.92;100.00;99815.09;1721892;82;20973;-39
2022/09/15 04:47:24;;;;;;;4.08;3.17;;;;;;;13.03;100.00;99814.67;1749366;82;21303;-39
2022/09/15 04:49:50;;;;;;;2.90;2.60;;;;;;;13.09;100.00;99804.51;1749398;82;20948;-38
2022/09/15 04:52:17;;;;;;;3.02;2.77;;;;;;;13.18;100.00;99792.91;1749460;81;21048;-39
2022/09/15 04:54:44;;;;;;;2.90;2.60;;;;;;;13.25;100.00;99787.85;1749330;80;20928;-39
2022/09/15 04:57:11;;;;;;;5.80;2.77;;;;;;;13.33;100.00;99779.75;1749363;82;20955;-38
2022/09/15 04:59:38;;;;;;;3.02;2.83;;;;;;;13.43;100.00;99776.36;1749393;82;21241;-39
2022/09/15 05:02:04;;;;;;;4.90;2.40;;;;;;;13.55;100.00;99769.80;1749208;82;21411;-39
2022/09/15 05:04:31;;;;;;;3.67;3.08;;;;;;;13.68;100.00;99777.94;1749348;82;21011;-38
2022/09/15 05:06:58;;;;;;;2.85;2.52;;;;;;;13.83;100.00;99776.44;1749297;82;20987;-39
2022/09/15 05:09:28;;;;;;;2.72;2.52;;;;;;;13.95;100.00;99771.99;1749626;82;20932;-38
2022/09/15 05:11:54;;;;;;;2.70;2.30;;;;;;;14.05;100.00;99775.04;1749417;82;21101;-38
2022/09/15 05:14:21;;;;;;;4.47;2.65;;;;;;;14.11;100.00;99778.67;1749145;81;20933;-38
2022/09/15 05:16:50;;;;;;;7.35;2.80;;;;;;;14.19;100.00;99788.75;1749297;82;20912;-38
2022/09/15 05:19:16;;;;;;;2.47;2.27;;;;;;;14.25;100.00;99782.44;1749257;82;21035;-38
2022/09/15 05:21:43;;;;;;;3.60;2.80;;;;;;;14.29;100.00;99784.84;1749432;82;20936;-38
2022/09/15 05:24:10;;;;;;;3.52;2.95;;;;;;;14.35;100.00;99788.47;1749358;82;21185;-38
2022/09/15 05:26:37;;;;;;;5.20;2.58;;;;;;;14.43;100.00;99782.06;1758544;81;20898;-39
2022/09/15 05:29:03;;;;;;;2.98;2.50;;;;;;;14.52;100.00;99785.53;1762820;81;21569;-39
2022/09/15 05:31:32;;;;;;;6.15;2.42;;;;;;;14.58;100.00;99780.07;1763065;81;20918;-39
2022/09/15 05:34:03;;;;;;;3.60;2.65;;;;;;;14.68;100.00;99779.63;1763195;81;20862;-39
2022/09/15 05:36:30;;;;;;;2.98;2.50;;;;;;;14.78;100.00;99770.05;1763246;81;21095;-39
2022/09/15 05:38:57;;;;;;;6.87;2.42;;;;;;;14.89;100.00;99767.39;1762856;81;20984;-39
2022/09/15 05:41:25;;;;;;;10.43;2.50;;;;;;;15.01;100.00;99760.75;1762969;81;20968;-39
2022/09/15 05:43:53;;;;;;;6.42;2.80;;;;;;;15.13;100.00;99765.38;1762906;81;20941;-39
2022/09/15 05:46:21;;;;;;;5.00;2.80;;;;;;;15.25;100.00;99758.73;1762805;81;21572;-38
2022/09/15 05:48:47;;;;;;;3.10;2.77;;;;;;;15.37;100.00;99759.89;1763079;81;21489;-38
2022/09/15 05:51:14;;;;;;;2.37;2.17;;;;;;;15.49;100.00;99771.47;1763018;80;20953;-38
2022/09/15 05:53:41;;;;;;;7.72;2.47;;;;;;;15.57;100.00;99768.49;1762945;81;21004;-38
2022/09/15 05:56:12;;;;;;;5.10;2.55;;;;;;;15.62;100.00;99780.84;1762874;81;20894;-38
2022/09/15 05:58:40;;;;;;;4.78;2.45;;;;;;;15.64;100.00;99778.98;1762894;81;20937;-38
2022/09/15 06:01:10;;;;;;;5.17;2.65;;;;;;;15.68;100.00;99780.52;1762713;81;21085;-40
2022/09/15 06:03:39;;;;;;;3.00;2.60;;;;;;;15.75;100.00;99787.58;1762733;81;20936;-39
2022/09/15 06:06:06;;;;;;;2.52;2.33;;;;;;;15.83;100.00;99792.41;1763142;81;21493;-39
2022/09/15 06:08:36;;;;;;;3.08;2.70;;;;;;;15.93;100.00;99788.43;1762894;80;20909;-38
2022/09/15 06:11:12;;;;;;;2.95;2.62;;;;;;;16.03;100.00;99782.28;1763208;81;20937;-38
2022/09/15 06:13:39;;;;;;;4.67;2.42;;;;;;;16.11;100.00;99777.97;1763200;81;22039;-38
2022/09/15 06:16:13;;;;;;;2.50;2.40;;;;;;;16.20;100.00;99783.56;1762704;81;20929;-38
2022/09/15 06:18:40;;;;;;;5.83;2.72;;;;;;;16.27;100.00;99772.30;1762719;81;20890;-38
2022/09/15 06:21:11;;;;;;;2.50;2.30;;;;;;;16.34;100.00;99780.66;1762942;81;20929;-38
2022/09/15 06:23:38;;;;;;;5.08;2.80;;;;;;;16.35;100.00;99776.67;1763018;81;21578;-38
2022/09/15 06:26:10;;;;;;;2.55;2.15;;;;;;;16.37;100.00;99768.74;1757868;81;21246;-38
2022/09/15 06:28:38;;;;;;;3.95;2.42;;;;;;;16.43;100.00;99764.97;1746460;81;20996;-38
2022/09/15 06:31:11;;;;;;;3.08;2.80;;;;;;;16.47;100.00;99767.78;1746563;82;21015;-39
2022/09/15 06:33:47;;;;;;;11.05;3.42;;;;;;;16.58;100.00;99768.52;1746694;82;21592;-39
2022/09/15 06:36:14;;;;;;;4.05;3.02;;;;;;;16.69;100.00;99768.78;1746722;82;21036;-39
2022/09/15 06:38:41;;;;;;;3.02;2.67;;;;;;;16.82;100.00;99768.95;1746513;82;21052;-39
2022/09/15 06:41:08;;;;;;;5.87;2.90;;;;;;;16.89;100.00;99762.45;1746578;82;20933;-39
2022/09/15 06:43:36;;;;;;;6.37;2.60;;;;;;;16.95;100.00;99763.40;1746550;82;20918;-39
2022/09/15 06:46:12;;;;;;;6.40;2.90;;;;;;;17.02;100.00;99763.08;1746591;82;21414;-38
2022/09/15 06:48:39;;;;;;;3.60;2.50;;;;;;;17.09;100.00;99761.83;1746797;82;21533;-39
2022/09/15 06:51:08;;;;;;;4.37;2.90;;;;;;;17.18;100.00;99765.69;1746832;82;21457;-39
2022/09/15 06:53:36;;;;;;;4.67;2.52;;;;;;;17.24;100.00;99765.34;1746731;82;20971;-39
2022/09/15 06:56:09;;;;;;;4.00;2.47;;;;;;;17.30;100.00;99766.28;1746830;82;20932;-39
2022/09/15 06:58:38;;;;;;;7.65;2.80;;;;;;;17.35;100.00;99772.08;1750246;82;20924;-38
2022/09/15 07:01:12;;;;;;;6.28;2.70;;;;;;;17.34;100.00;99771.70;1746867;82;20980;-38
2022/09/15 07:03:38;;;;;;;4.00;2.87;;;;;;;17.32;100.00;99777.98;1745437;82;21442;-39
2022/09/15 07:06:06;;;;;;;2.75;2.52;;;;;;;17.33;100.00;99776.56;1746774;80;20979;-39
2022/09/15 07:08:33;;;;;;;7.35;2.80;;;;;;;17.35;100.00;99781.72;1746481;81;21450;-38
2022/09/15 07:11:01;;;;;;;4.97;2.55;;;;;;;17.37;100.00;99785.91;1746635;82;20960;-38
2022/09/15 07:13:29;;;;;;;3.87;2.75;;;;;;;17.43;100.00;99788.65;1746913;81;20992;-38
2022/09/15 07:15:58;;;;;;;4.08;2.67;;;;;;;17.51;100.00;99785.11;1746580;82;21066;-38
2022/09/15 07:18:25;;;;;;;7.92;3.00;;;;;;;17.64;100.00;99778.70;1746713;82;20956;-39
2022/09/15 07:20:51;;;;;;;5.75;2.67;;;;;;;17.79;100.00;99769.09;1746832;81;20940;-38
2022/09/15 07:23:18;;;;;;;10.48;4.35;;;;;;;17.94;100.00;99765.20;1746641;81;21490;-38
2022/09/15 07:25:45;;;;;;;6.58;4.22;;;;;;;18.08;100.00;99767.87;1746772;81;21004;-39
2022/09/15 07:28:15;;;;;;;4.70;3.25;;;;;;;18.22;100.00;99759.61;1746651;81;21096;-38
2022/09/15 07:30:42;;;;;;;5.87;2.95;;;;;;;18.33;100.00;99762.43;1746740;82;20920;-38
2022/09/15 07:33:11;;;;;;;3.47;3.08;;;;;;;18.43;100.00;99758.74;1746677;81;20983;-38
2022/09/15 07:35:42;;;;;;;4.30;2.60;;;;;;;18.55;100.00;99751.89;1746949;82;20976;-38
2022/09/15 07:38:09;;;;;;;5.65;2.77;;;;;;;18.61;100.00;99745.43;1746692;82;21447;-38
2022/09/15 07:40:37;;;;;;;3.17;2.50;;;;;;;18.65;100.00;99739.05;1747044;82;21824;-38
2022/09/15 07:43:05;;;;;;;5.37;2.80;;;;;;;18.70;100.00;99737.45;1746729;82;21066;-38
2022/09/15 07:45:32;;;;;;;5.12;2.72;;;;;;;18.78;100.00;99727.31;1725064;82;20952;-38
2022/09/15 07:47:59;;;;;;;5.37;2.52;;;;;;;18.90;100.00;99719.13;1746616;82;20889;-38
2022/09/15 07:50:26;;;;;;;6.37;2.80;;;;;;;19.02;100.00;99721.45;1746683;82;20952;-38
2022/09/15 07:52:56;;;;;;;3.47;2.52;;;;;;;19.13;100.00;99707.62;1746817;82;21297;-38
2022/09/15 07:55:23;;;;;;;2.87;2.60;;;;;;;19.27;100.00;99703.63;1746459;82;21482;-38
2022/09/15 07:58:00;;;;;;;6.62;2.33;;;;;;;19.36;100.00;99705.63;1746802;81;20896;-38
2022/09/15 08:00:27;;;;;;;4.65;2.62;;;;;;;19.48;100.00;99709.69;1746546;82;21487;-38
2022/09/15 08:02:54;;;;;;;3.80;2.55;;;;;;;19.55;100.00;99702.22;1746821;81;21435;-38
2022/09/15 08:05:26;;;;;;;4.37;2.80;;;;;;;19.53;100.00;99693.98;1746521;81;22177;-38
2022/09/15 08:07:51;;;;;;;3.65;2.45;;;;;;;19.56;100.00;99696.87;1746210;82;20936;-38
2022/09/15 08:10:17;;;;;;;2.58;2.37;;;;;;;19.58;100.00;99702.01;1746648;82;21050;-38
2022/09/15 08:12:45;;;;;;;4.03;2.47;;;;;;;19.57;100.00;99704.27;1746748;82;21046;-38
2022/09/15 08:15:11;;;;;;;4.33;2.42;;;;;;;19.57;100.00;99696.39;1746765;81;21509;-38
2022/09/15 08:17:38;;;;;;;2.65;2.40;;;;;;;19.60;100.00;99704.91;1746755;82;21041;-39
2022/09/15 08:20:07;;;;;;;5.72;2.60;;;;;;;19.58;100.00;99695.44;1746707;82;20936;-39
2022/09/15 08:22:36;;;;;;;3.85;2.37;;;;;;;19.54;100.00;99697.45;1746511;82;20948;-39
2022/09/15 08:25:04;;;;;;;3.08;2.40;;;;;;;19.53;100.00;99695.78;1746675;82;20885;-39
2022/09/15 08:27:32;;;;;;;9.98;2.50;;;;;;;19.50;100.00;99697.30;1740370;80;21395;-39
2022/09/15 08:29:59;;;;;;;5.90;2.72;;;;;;;19.47;100.00;99702.28;1736161;82;21299;-39
2022/09/15 08:32:26;;;;;;;7.12;2.90;;;;;;;19.47;100.00;99694.41;1736035;82;21506;-39
2022/09/15 08:34:53;;;;;;;3.72;2.72;;;;;;;19.48;100.00;99693.95;1736125;82;21510;-40
2022/09/15 08:37:19;;;;;;;6.58;3.00;;;;;;;19.49;100.00;99686.44;1736182;81;21023;-40
2022/09/15 08:39:47;;;;;;;4.65;2.62;;;;;;;19.45;100.00;99687.11;1736166;82;20933;-39
2022/09/15 08:42:18;;;;;;;3.50;2.90;;;;;;;19.39;100.00;99683.11;1736223;82;21191;-39
2022/09/15 08:44:59;;;;;;;3.50;2.62;;;;;;;19.41;100.00;99680.85;1736000;82;21550;-39
2022/09/15 08:47:30;;;;;;;4.40;2.70;;;;;;;19.45;100.00;99677.92;1724293;82;21067;-40
2022/09/15 08:50:21;;;;;;;14.30;2.98;;;;;;;19.47;100.00;99676.03;1736285;82;20905;-38
2022/09/15 08:53:08;;;;;;;6.78;3.30;;;;;;;19.50;100.00;99678.45;1710881;82;20933;-38
2022/09/15 08:55:53;;;;;;;9.28;2.92;;;;;;;19.58;100.00;99682.32;1735961;82;21078;-38
2022/09/15 08:58:25;;;;;;;4.60;3.02;;;;;;;19.65;100.00;99679.66;1736001;82;20976;-39
2022/09/15 09:01:07;;;;;;;4.80;2.58;;;;;;;19.68;100.00;99678.96;1736454;82;21048;-39
2022/09/15 09:04:03;;;;;;;3.60;2.92;;;;;;;19.70;100.00;99675.39;1736093;82;20921;-39
2022/09/15 09:06:54;;;;;;;8.08;2.80;;;;;;;19.67;100.00;99672.03;1736310;82;21015;-39
2022/09/15 09:09:39;;;;;;;6.87;2.83;;;;;;;19.64;100.00;99671.42;1736109;82;21168;-39
2022/09/15 09:12:21;;;;;;;6.73;2.60;;;;;;;19.60;100.00;99660.78;1736253;82;20952;-39
2022/09/15 09:15:08;;;;;;;9.85;2.90;;;;;;;19.60;100.00;99661.59;1736199;82;20933;-39
2022/09/15 09:18:22;;;;;;;6.40;2.80;;;;;;;19.63;100.00;99658.76;1735928;82;20890;-39
2022/09/15 09:21:25;;;;;;;4.80;2.92;;;;;;;19.68;100.00;99650.58;1736055;82;20941;-39
2022/09/15 09:24:12;;;;;;;7.00;2.77;;;;;;;19.72;100.00;99650.72;1736184;82;21447;-39
2022/09/15 09:26:39;;;;;;;9.13;3.20;;;;;;;19.75;100.00;99655.76;1739512;81;20981;-39
2022/09/15 09:29:18;;;;;;;2.62;2.42;;;;;;;19.83;100.00;99659.16;1762797;81;20973;-39
2022/09/15 09:31:49;;;;;;;10.55;3.00;;;;;;;19.88;100.00;99657.54;1762763;81;20960;-39
2022/09/15 09:34:49;;;;;;;4.70;2.80;;;;;;;19.92;100.00;99659.03;1762909;81;20929;-39
2022/09/15 09:37:16;;;;;;;8.43;3.05;;;;;;;19.93;100.00;99662.02;1753061;81;21239;-38
2022/09/15 09:39:43;;;;;;;3.35;2.65;;;;;;;19.97;100.00;99660.85;1762764;81;21015;-38
2022/09/15 09:42:13;;;;;;;5.50;2.87;;;;;;;19.99;100.00;99655.02;1762958;81;20866;-38
2022/09/15 09:44:41;;;;;;;6.90;2.87;;;;;;;20.03;100.00;99655.16;1762956;81;21011;-38
2022/09/15 09:47:08;;;;;;;9.10;3.30;;;;;;;20.05;100.00;99655.89;1763175;81;20894;-38
2022/09/15 09:49:47;;;;;;;7.08;2.62;;;;;;;20.07;100.00;99657.92;1762747;81;21158;-38
2022/09/15 09:52:17;;;;;;;7.08;2.77;;;;;;;20.09;100.00;99663.08;1762655;81;20886;-38
2022/09/15 09:54:44;;;;;;;6.22;2.92;;;;;;;20.05;100.00;99659.00;1738135;81;20933;-38
2022/09/15 09:57:19;;;;;;;6.15;2.55;;;;;;;20.01;100.00;99659.68;1762902;81;21526;-38
2022/09/15 09:59:47;;;;;;;3.80;2.58;;;;;;;20.01;100.00;99656.23;1762068;81;20987;-38
2022/09/15 10:02:20;;;;;;;10.88;3.02;;;;;;;19.97;100.00;99657.41;1762900;81;21793;-39
2022/09/15 10:04:50;;;;;;;4.62;2.37;;;;;;;19.91;100.00;99667.36;1762865;81;21482;-38
2022/09/15 10:07:22;;;;;;;5.60;2.42;;;;;;;19.87;100.00;99665.05;1761872;81;20925;-39
2022/09/15 10:09:56;;;;;;;4.53;2.55;;;;;;;19.78;100.00;99663.41;1762224;81;20973;-39
2022/09/15 10:12:31;;;;;;;3.83;2.47;;;;;;;19.72;100.00;99659.91;1763401;81;20930;-39
2022/09/15 10:15:01;;;;;;;3.85;2.60;;;;;;;19.64;100.00;99664.38;1762898;81;21241;-39
2022/09/15 10:17:41;;;;;;;6.95;2.55;;;;;;;19.58;100.00;99661.33;1737358;81;20857;-39
2022/09/15 10:20:34;;;;;;;12.00;2.52;;;;;;;19.56;100.00;99660.59;1762904;81;20898;-39
2022/09/15 10:23:15;;;;;;;8.48;2.92;;;;;;;19.52;100.00;99650.80;1763315;81;20933;-40
2022/09/15 10:25:42;;;;;;;4.10;2.98;;;;;;;19.52;100.00;99656.88;1762814;81;20996;-40
2022/09/15 10:28:16;;;;;;;5.50;2.25;;;;;;;19.60;100.00;99656.34;1741683;81;21147;-39
2022/09/15 10:31:06;;;;;;;5.28;2.87;;;;;;;19.66;100.00;99648.53;1770792;81;20968;-40
2022/09/15 10:33:36;;;;;;;3.65;2.42;;;;;;;19.70;100.00;99650.45;1770583;81;20861;-39
2022/09/15 10:36:10;;;;;;;3.83;2.20;;;;;;;19.68;100.00;99644.84;1770816;81;21491;-39
2022/09/15 10:38:48;;;;;;;5.92;2.50;;;;;;;19.67;100.00;99639.22;1770497;81;21326;-39
2022/09/15 10:41:33;;;;;;;6.95;2.72;;;;;;;19.70;100.00;99635.55;1770755;81;21773;-39
2022/09/15 10:44:23;;;;;;;6.80;2.83;;;;;;;19.74;100.00;99625.20;1770984;81;20955;-39
2022/09/15 10:47:22;;;;;;;7.75;2.45;;;;;;;19.81;100.00;99629.06;1770318;81;20897;-39
2022/09/15 10:49:57;;;;;;;4.55;2.45;;;;;;;19.79;100.00;99616.52;1759132;81;20921;-39
2022/09/15 10:52:44;;;;;;;6.55;2.85;;;;;;;19.82;100.00;99610.23;1771090;81;20972;-39
2022/09/15 10:55:16;;;;;;;4.42;2.75;;;;;;;19.90;100.00;99609.20;1771065;81;21182;-39
2022/09/15 10:58:19;;;;;;;8.30;2.60;;;;;;;19.95;100.00;99607.11;1771122;81;20909;-39
2022/09/15 11:01:09;;;;;;;6.65;2.80;;;;;;;20.01;100.00;99608.47;1771111;81;20980;-39
2022/09/15 11:04:10;;;;;;;9.45;2.50;;;;;;;20.08;100.00;99600.53;1771026;81;21040;-39
2022/09/15 11:06:50;;;;;;;3.42;2.47;;;;;;;20.09;100.00;99607.92;1770986;81;20969;-39
2022/09/15 11:09:39;;;;;;;7.40;4.15;;;;;;;20.03;100.00;99618.39;1740470;81;21072;-39
2022/09/15 11:12:36;;;;;;;6.05;2.83;;;;;;;19.97;100.00;99620.14;1770850;80;21035;-39
2022/09/15 11:15:28;;;;;;;5.75;2.42;;;;;;;19.94;100.00;99621.68;1754892;81;20988;-39
2022/09/15 11:18:45;;;;;;;5.15;2.62;;;;;;;19.89;100.00;99615.89;1770680;81;21083;-39
2022/09/15 11:21:25;;;;;;;4.33;3.37;;;;;;;19.79;100.00;99619.14;1771259;81;20921;-39
2022/09/15 11:24:18;;;;;;;7.03;3.05;;;;;;;19.65;100.00;99612.23;1771023;81;21259;-39
2022/09/15 11:26:53;;;;;;;3.42;2.58;;;;;;;19.58;100.00;99616.70;1770834;81;20873;-39
2022/09/15 11:29:25;;;;;;;3.83;2.90;;;;;;;19.55;100.00;99616.92;1747984;81;20970;-39
2022/09/15 11:31:59;;;;;;;6.62;2.90;;;;;;;19.52;100.00;99615.38;1747133;82;21015;-39
2022/09/15 11:34:51;;;;;;;4.97;2.85;;;;;;;19.49;100.00;99609.84;1746744;82;20937;-39
2022/09/15 11:37:21;;;;;;;6.92;2.47;;;;;;;19.47;100.00;99604.36;1746156;82;21870;-39
2022/09/15 11:39:56;;;;;;;5.60;2.80;;;;;;;19.43;100.00;99610.28;1746935;82;21565;-39
2022/09/15 11:42:30;;;;;;;5.58;2.72;;;;;;;19.38;100.00;99606.66;1747174;80;21513;-39
2022/09/15 11:44:56;;;;;;;5.95;2.92;;;;;;;19.34;100.00;99609.61;1742627;80;21004;-39
2022/09/15 11:47:44;;;;;;;6.40;2.85;;;;;;;19.32;100.00;99608.39;1746893;80;21455;-40
2022/09/15 11:50:18;;;;;;;5.08;3.00;;;;;;;19.29;100.00;99610.38;1746733;82;21139;-40
2022/09/15 11:53:18;;;;;;;4.75;3.10;;;;;;;19.24;100.00;99609.41;1746467;82;21029;-40